Time;durP1;ratioP1;P1;durP2;ratioP2;P2;SDS_P1;SDS_P2;PMS_P1;PMS_P2;Temp;Humidity;BMP_temperature;BMP_pressure;BME280_temperature;BME280_humidity;BME280_pressure;Samples;Min_cycle;Max_cycle;Signal;HPM_P1;HPM_P2
2021/05/03 14:58:39;;;;;;;1.63;0.70;;;22.40;29.30;;;;;;5050915;28;20448;-77
2021/05/03 15:01:04;;;;;;;2.85;0.40;;;25.50;26.90;;;;;;5018611;28;20041;-88
2021/05/03 15:03:30;;;;;;;4.13;0.50;;;26.10;26.20;;;;;;5023826;28;20021;-87
2021/05/03 15:05:59;;;;;;;2.25;0.68;;;27.10;26.00;;;;;;5019117;28;20030;-88
2021/05/03 15:08:27;;;;;;;2.70;0.73;;;26.10;25.80;;;;;;5017689;28;20088;-87
2021/05/03 15:10:52;;;;;;;0.82;0.50;;;26.30;25.60;;;;;;5023718;28;20018;-87
2021/05/03 15:13:22;;;;;;;0.95;0.43;;;25.60;27.70;;;;;;5014051;28;20026;-87
2021/05/03 15:16:59;;;;;;;1.83;0.40;;;25.40;28.10;;;;;;5023980;28;20010;-88
2021/05/03 15:19:15;;;;;;;1.23;0.40;;;25.30;26.50;;;;;;5012605;28;20038;-87
2021/05/03 15:21:37;;;;;;;5.93;0.60;;;26.40;27.10;;;;;;5011719;28;20382;-87
2021/05/03 15:24:10;;;;;;;0.68;0.40;;;26.10;26.30;;;;;;5011972;28;20152;-87
2021/05/03 15:26:36;;;;;;;1.02;0.47;;;26.50;27.90;;;;;;5012659;28;20036;-88
2021/05/03 15:34:38;;;;;;;1.42;0.40;;;25.90;27.90;;;;;;4975308;28;20033;-87
2021/05/03 15:37:04;;;;;;;0.80;0.45;;;25.80;27.60;;;;;;4978077;28;20071;-88
2021/05/03 15:39:30;;;;;;;1.67;0.40;;;26.60;27.50;;;;;;4993670;28;20457;-88
2021/05/03 15:41:56;;;;;;;0.63;0.50;;;26.20;27.70;;;;;;5016712;28;20018;-88
2021/05/03 15:44:26;;;;;;;0.60;0.40;;;26.80;27.90;;;;;;5014651;28;20530;-88
2021/05/03 15:46:51;;;;;;;1.15;0.47;;;27.60;25.90;;;;;;5018786;28;20013;-88
2021/05/03 15:49:17;;;;;;;3.25;0.50;;;27.80;26.10;;;;;;5014163;28;20052;-87
2021/05/03 15:51:43;;;;;;;3.42;0.60;;;27.90;26.40;;;;;;5016102;28;20501;-87
2021/05/03 15:54:09;;;;;;;1.58;0.35;;;25.80;27.60;;;;;;5007079;28;20101;-88
2021/05/03 15:56:36;;;;;;;0.68;0.30;;;25.70;27.40;;;;;;5016786;28;20041;-87
2021/05/03 15:59:04;;;;;;;1.48;0.40;;;26.40;25.90;;;;;;5016713;28;20508;-89
2021/05/03 16:01:30;;;;;;;1.58;0.35;;;26.60;28.20;;;;;;5019570;28;20026;-88
2021/05/03 16:03:56;;;;;;;1.20;0.30;;;26.50;27.40;;;;;;5011545;28;20410;-88
2021/05/03 16:06:22;;;;;;;2.45;0.52;;;25.30;29.40;;;;;;5020964;28;20068;-88
2021/05/03 16:08:50;;;;;;;2.97;0.40;;;23.90;31.50;;;;;;5009872;28;20034;-88
2021/05/03 16:11:20;;;;;;;1.08;0.47;;;24.70;30.90;;;;;;5005330;28;20402;-88
2021/05/03 16:13:46;;;;;;;3.72;0.80;;;25.40;29.30;;;;;;5004457;28;20106;-88
2021/05/03 16:16:11;;;;;;;3.38;0.40;;;25.70;28.80;;;;;;5006915;28;20105;-88
2021/05/03 16:18:37;;;;;;;3.05;0.60;;;25.40;30.00;;;;;;5032069;28;20022;-88
2021/05/03 16:21:03;;;;;;;2.90;0.57;;;25.70;29.50;;;;;;5008143;28;20022;-88
2021/05/03 16:23:29;;;;;;;1.77;0.90;;;25.50;29.20;;;;;;4997541;28;20376;-88
2021/05/03 16:25:55;;;;;;;1.45;0.40;;;25.60;28.30;;;;;;5009393;28;20029;-89
2021/05/03 16:28:20;;;;;;;1.15;0.40;;;26.40;28.10;;;;;;4993414;28;20022;-88
2021/05/03 16:30:47;;;;;;;1.85;0.50;;;26.90;27.20;;;;;;4999297;28;20053;-88
2021/05/03 16:33:12;;;;;;;1.15;0.47;;;25.80;27.40;;;;;;5002239;28;20014;-88
2021/05/03 16:35:38;;;;;;;1.08;0.40;;;26.00;27.90;;;;;;5010221;28;20037;-88
2021/05/03 16:38:04;;;;;;;2.53;0.60;;;25.70;29.20;;;;;;5002156;28;20026;-88
2021/05/03 16:40:33;;;;;;;2.53;0.40;;;25.60;29.10;;;;;;5007209;28;20104;-88
2021/05/03 16:42:58;;;;;;;1.67;0.40;;;26.60;27.50;;;;;;5002792;28;20022;-88
2021/05/03 16:45:24;;;;;;;2.05;0.50;;;26.70;27.50;;;;;;5024105;28;20081;-88
2021/05/03 16:47:53;;;;;;;3.25;0.55;;;26.40;28.60;;;;;;5000610;28;20463;-89
2021/05/03 16:50:19;;;;;;;3.45;0.45;;;26.40;29.10;;;;;;5008129;28;20021;-87
2021/05/03 16:52:45;;;;;;;0.80;0.40;;;25.90;28.00;;;;;;5003443;28;20546;-89
2021/05/03 16:55:11;;;;;;;1.40;0.40;;;26.80;28.30;;;;;;5006601;28;20105;-90
2021/05/03 16:57:37;;;;;;;1.42;0.50;;;26.60;28.30;;;;;;5003190;28;20139;-88
2021/05/03 17:00:08;;;;;;;1.65;0.50;;;25.70;29.10;;;;;;5005316;28;20049;-86
2021/05/03 17:02:34;;;;;;;1.88;0.57;;;24.90;30.00;;;;;;5001501;28;20088;-88
2021/05/03 17:04:59;;;;;;;1.70;0.60;;;25.60;29.80;;;;;;5001796;28;20021;-89
2021/05/03 17:07:25;;;;;;;2.47;0.52;;;24.90;30.30;;;;;;4993582;28;20176;-88
2021/05/03 17:09:51;;;;;;;2.70;0.40;;;25.90;29.80;;;;;;5009882;28;20375;-88
2021/05/03 17:12:17;;;;;;;1.40;0.50;;;25.80;27.50;;;;;;4998773;28;20391;-87
2021/05/03 17:14:42;;;;;;;1.02;0.50;;;26.00;27.30;;;;;;5002000;28;20080;-87
2021/05/03 17:17:08;;;;;;;3.47;0.70;;;25.40;28.70;;;;;;4998127;28;20028;-87
2021/05/03 17:19:34;;;;;;;1.00;0.40;;;25.10;29.50;;;;;;5009256;28;20517;-88
2021/05/03 17:22:00;;;;;;;1.60;0.50;;;25.00;30.50;;;;;;4998881;28;20018;-87
2021/05/03 17:24:26;;;;;;;1.23;0.30;;;25.80;30.30;;;;;;4996687;28;20509;-87
2021/05/03 17:26:52;;;;;;;1.05;0.40;;;26.70;28.00;;;;;;4994196;28;20022;-88
2021/05/03 17:29:17;;;;;;;1.00;0.50;;;26.70;28.30;;;;;;4994922;28;20022;-88
2021/05/03 17:31:44;;;;;;;1.77;0.70;;;26.80;28.40;;;;;;5001877;28;20434;-89
2021/05/03 17:34:11;;;;;;;1.00;0.60;;;26.40;28.90;;;;;;5001127;28;20098;-89
2021/05/03 17:36:38;;;;;;;1.75;0.60;;;25.50;27.60;;;;;;5006135;28;20029;-88
2021/05/03 17:39:09;;;;;;;3.05;0.50;;;24.10;28.60;;;;;;5005637;28;20026;-86
2021/05/03 17:41:35;;;;;;;1.58;0.50;;;23.70;29.20;;;;;;5005762;28;20018;-87
2021/05/03 17:44:03;;;;;;;1.55;0.47;;;23.70;29.80;;;;;;5007577;28;20034;-87
2021/05/03 17:46:32;;;;;;;2.35;0.52;;;24.20;30.00;;;;;;5003502;28;20022;-88
2021/05/03 17:48:57;;;;;;;1.55;0.55;;;24.30;29.70;;;;;;5010143;28;20037;-88
2021/05/03 17:51:23;;;;;;;3.25;0.50;;;23.50;31.10;;;;;;4995793;28;20030;-88
2021/05/03 17:53:49;;;;;;;3.53;0.68;;;22.60;33.90;;;;;;5002375;28;20088;-88
2021/05/03 17:56:15;;;;;;;1.20;0.40;;;22.10;35.20;;;;;;5005663;28;20037;-88
2021/05/03 17:58:42;;;;;;;1.00;0.40;;;22.00;34.60;;;;;;5009293;28;20113;-87
2021/05/03 18:01:09;;;;;;;1.80;0.60;;;20.30;36.60;;;;;;5004979;28;20065;-88
2021/05/03 18:03:39;;;;;;;1.77;0.63;;;19.20;39.50;;;;;;5008435;28;20030;-87
2021/05/03 18:06:09;;;;;;;0.90;0.50;;;18.00;42.80;;;;;;5000913;28;20037;-87
2021/05/03 18:08:37;;;;;;;2.30;0.60;;;16.80;43.70;;;;;;5012128;28;20026;-88
2021/05/03 18:11:04;;;;;;;2.88;0.52;;;16.40;46.20;;;;;;5004887;28;20022;-88
2021/05/03 18:13:30;;;;;;;1.33;0.40;;;16.20;46.80;;;;;;5005938;28;20036;-89
2021/05/03 18:15:58;;;;;;;2.03;0.45;;;15.90;49.90;;;;;;5008300;28;20375;-90
2021/05/03 18:18:24;;;;;;;1.23;0.45;;;16.00;48.60;;;;;;5005142;28;20517;-87
2021/05/03 18:20:54;;;;;;;0.70;0.50;;;15.70;47.60;;;;;;5006712;28;20061;-87
2021/05/03 18:23:20;;;;;;;1.77;0.55;;;15.40;49.10;;;;;;5006002;28;20029;-87
2021/05/03 18:25:45;;;;;;;2.97;0.70;;;15.40;50.00;;;;;;5004871;28;20030;-88
2021/05/03 18:28:11;;;;;;;1.13;0.50;;;15.40;50.90;;;;;;5001624;28;20168;-87
2021/05/03 18:30:37;;;;;;;1.92;0.90;;;15.20;50.90;;;;;;4998629;28;20140;-87
2021/05/03 18:33:04;;;;;;;1.27;0.40;;;15.10;50.50;;;;;;5002682;28;20080;-86
2021/05/03 18:35:30;;;;;;;2.28;1.30;;;14.90;49.90;;;;;;5005732;28;20177;-87
2021/05/03 18:37:56;;;;;;;0.60;0.32;;;15.00;50.90;;;;;;5000963;28;20154;-88
2021/05/03 18:40:22;;;;;;;0.80;0.40;;;14.90;50.20;;;;;;5008685;28;20231;-86
2021/05/03 18:42:48;;;;;;;1.00;0.60;;;14.70;51.60;;;;;;5006215;28;20530;-87
2021/05/03 18:45:14;;;;;;;2.85;0.80;;;14.80;51.20;;;;;;5012645;28;20148;-88
2021/05/03 18:47:40;;;;;;;2.42;0.40;;;14.60;51.20;;;;;;5004228;28;20441;-86
2021/05/03 18:50:07;;;;;;;2.05;0.57;;;14.50;51.80;;;;;;5001222;28;20023;-86
2021/05/03 18:52:36;;;;;;;2.13;1.08;;;14.50;52.10;;;;;;5002547;28;20022;-87
2021/05/03 18:55:04;;;;;;;3.35;1.25;;;14.40;52.10;;;;;;5005466;28;20105;-87
2021/05/03 18:57:30;;;;;;;3.33;1.27;;;14.20;52.80;;;;;;5001341;28;20058;-87
2021/05/03 18:59:56;;;;;;;1.95;0.80;;;14.10;52.60;;;;;;5010208;28;20022;-87
2021/05/03 19:02:21;;;;;;;0.82;0.52;;;14.00;53.30;;;;;;5003731;28;20026;-87
2021/05/03 19:04:48;;;;;;;2.65;1.25;;;14.10;53.10;;;;;;4999825;28;20494;-82
2021/05/03 19:07:15;;;;;;;1.17;0.70;;;14.10;53.20;;;;;;4998701;28;20022;-86
2021/05/03 19:09:41;;;;;;;2.67;1.00;;;14.00;53.30;;;;;;5039914;28;20036;-86
2021/05/03 19:12:07;;;;;;;1.67;1.00;;;13.90;54.10;;;;;;5033805;28;20375;-86
2021/05/03 19:14:34;;;;;;;3.25;1.10;;;13.80;54.60;;;;;;4991187;28;20097;-86
2021/05/03 19:17:01;;;;;;;2.30;0.80;;;13.80;54.90;;;;;;4996902;28;20035;-86
2021/05/03 19:19:27;;;;;;;2.75;1.42;;;13.90;54.70;;;;;;4995705;28;20454;-85
2021/05/03 19:21:53;;;;;;;1.58;0.75;;;13.70;55.40;;;;;;4999069;28;20518;-86
2021/05/03 19:24:24;;;;;;;2.95;1.00;;;13.70;56.30;;;;;;5005555;28;20499;-86
2021/05/03 19:26:53;;;;;;;2.55;0.80;;;13.70;56.20;;;;;;4997982;28;20022;-86
2021/05/03 19:29:20;;;;;;;3.05;1.13;;;13.60;55.70;;;;;;4990803;28;20030;-86
2021/05/03 19:31:55;;;;;;;2.72;1.45;;;13.60;56.60;;;;;;4992140;28;20092;-86
2021/05/03 19:34:23;;;;;;;3.17;1.20;;;13.60;57.00;;;;;;4989796;28;20455;-86
2021/05/03 19:36:49;;;;;;;2.83;1.65;;;13.60;56.10;;;;;;5000774;28;20049;-87
2021/05/03 19:39:14;;;;;;;4.43;2.10;;;13.60;57.30;;;;;;4988595;28;20494;-86
2021/05/03 19:41:40;;;;;;;3.33;1.42;;;13.60;57.30;;;;;;4994550;28;20022;-86
2021/05/03 19:44:06;;;;;;;4.28;1.67;;;13.60;56.80;;;;;;4995657;28;20072;-87
2021/05/03 19:46:36;;;;;;;2.97;1.52;;;13.70;56.40;;;;;;5008169;28;20065;-86
2021/05/03 19:49:11;;;;;;;7.93;3.33;;;13.70;56.60;;;;;;5002911;28;20026;-87
2021/05/03 20:05:08;;;;;;;5.85;2.60;;;13.40;57.10;;;;;;5008539;28;20221;-86
2021/05/03 20:07:34;;;;;;;4.60;1.92;;;13.50;57.30;;;;;;5004146;28;20021;-87
2021/05/03 20:10:01;;;;;;;6.95;3.97;;;13.50;57.20;;;;;;5004801;28;20405;-87
2021/05/03 20:12:27;;;;;;;8.18;4.78;;;13.50;57.10;;;;;;5000938;28;20509;-87
2021/05/03 20:14:54;;;;;;;7.45;4.10;;;13.40;57.50;;;;;;5010587;28;20022;-87
2021/05/03 20:17:20;;;;;;;4.60;3.03;;;13.30;58.00;;;;;;5004964;28;20196;-86
2021/05/03 20:19:45;;;;;;;3.55;2.20;;;13.30;58.20;;;;;;5022883;28;20021;-86
2021/05/03 20:22:11;;;;;;;3.25;2.08;;;13.20;58.50;;;;;;5018654;28;20086;-86
2021/05/03 20:24:37;;;;;;;13.13;6.70;;;13.10;58.60;;;;;;5023931;28;20018;-87
2021/05/03 20:27:03;;;;;;;12.98;6.32;;;13.20;58.10;;;;;;5020462;28;20053;-86
2021/05/03 20:29:29;;;;;;;17.27;7.57;;;13.10;58.40;;;;;;5008454;28;20034;-86
2021/05/03 20:31:55;;;;;;;9.40;3.90;;;13.10;58.40;;;;;;5012674;28;20026;-86
2021/05/03 20:34:31;;;;;;;6.70;3.58;;;13.20;58.60;;;;;;5015152;28;20030;-86
2021/05/03 20:42:15;;;;;;;3.72;2.42;;;13.20;59.30;;;;;;5013227;28;20026;-86
2021/05/03 20:44:41;;;;;;;3.28;2.20;;;13.20;61.00;;;;;;5014492;28;20033;-86
2021/05/03 20:47:09;;;;;;;5.28;2.53;;;13.20;60.30;;;;;;5006855;28;20030;-89
2021/05/03 20:49:36;;;;;;;3.50;1.70;;;13.10;61.00;;;;;;5012544;28;20038;-89
2021/05/03 20:52:02;;;;;;;2.65;0.95;;;13.10;60.20;;;;;;4998863;28;20478;-89
2021/05/03 20:54:28;;;;;;;2.97;1.50;;;13.20;59.30;;;;;;5000248;28;20053;-89
2021/05/03 20:56:54;;;;;;;2.53;1.17;;;13.10;61.30;;;;;;5004043;28;20162;-89
2021/05/03 20:59:19;;;;;;;2.17;1.00;;;13.00;61.70;;;;;;4996954;28;20496;-85
2021/05/03 21:01:45;;;;;;;2.03;0.95;;;13.00;59.90;;;;;;5002581;28;20026;-87
2021/05/03 21:04:11;;;;;;;1.60;1.00;;;12.90;60.30;;;;;;4995243;28;20093;-88
2021/05/03 21:06:37;;;;;;;1.35;0.90;;;12.90;60.80;;;;;;5002650;28;20153;-89
2021/05/03 21:09:04;;;;;;;3.67;1.10;;;12.80;60.30;;;;;;4992859;28;20038;-88
2021/05/03 21:11:29;;;;;;;5.30;1.17;;;12.80;60.80;;;;;;5003405;28;20033;-88
2021/05/03 21:13:55;;;;;;;3.90;1.27;;;12.80;60.80;;;;;;4993201;28;20022;-90
2021/05/03 21:16:22;;;;;;;3.45;1.20;;;12.80;61.00;;;;;;5002207;28;20113;-88
2021/05/03 21:18:48;;;;;;;3.20;1.10;;;12.70;61.30;;;;;;5010105;28;20510;-88
2021/05/03 21:21:14;;;;;;;1.80;0.90;;;12.70;61.80;;;;;;5007584;28;20041;-88
2021/05/03 21:23:40;;;;;;;2.47;0.80;;;12.80;62.30;;;;;;5009138;28;20026;-88
2021/05/03 21:26:06;;;;;;;6.35;1.10;;;12.70;62.20;;;;;;5007032;28;20064;-88
2021/05/03 21:28:31;;;;;;;1.80;0.82;;;12.70;62.60;;;;;;5031816;28;20562;-88
2021/05/03 21:30:57;;;;;;;2.38;1.10;;;12.70;62.90;;;;;;5008144;28;20068;-87
2021/05/03 21:33:26;;;;;;;1.63;1.00;;;12.60;63.10;;;;;;5007788;28;20502;-92
2021/05/03 21:35:52;;;;;;;2.47;1.02;;;12.60;64.00;;;;;;5010183;28;20025;-90
2021/05/03 21:38:19;;;;;;;3.92;1.10;;;12.50;64.40;;;;;;4991602;28;20125;-88
2021/05/03 21:40:45;;;;;;;3.95;0.98;;;12.50;65.50;;;;;;4991897;28;20037;-91
2021/05/03 21:43:11;;;;;;;1.80;0.80;;;12.60;65.50;;;;;;4998156;28;20399;-88
2021/05/03 21:45:37;;;;;;;3.53;1.20;;;12.50;66.10;;;;;;5007773;28;20026;-91
2021/05/03 21:48:03;;;;;;;2.70;1.00;;;12.50;67.50;;;;;;4997127;28;20021;-89
2021/05/03 21:50:33;;;;;;;3.90;1.05;;;12.50;66.90;;;;;;5000094;28;20033;-90
2021/05/03 21:53:00;;;;;;;1.58;0.95;;;12.50;67.00;;;;;;4998133;28;20065;-88
2021/05/03 21:55:25;;;;;;;1.88;0.88;;;12.50;67.70;;;;;;5010849;28;20501;-90
2021/05/03 21:57:51;;;;;;;2.85;0.80;;;12.50;68.20;;;;;;5007024;28;20058;-89
2021/05/03 22:00:17;;;;;;;1.77;0.80;;;12.40;68.20;;;;;;5039148;28;20026;-88
2021/05/03 22:02:43;;;;;;;5.70;2.40;;;12.50;67.10;;;;;;5028020;28;20443;-93
2021/05/03 22:05:09;;;;;;;2.28;1.15;;;12.50;67.30;;;;;;5009676;28;20037;-92
2021/05/03 22:07:35;;;;;;;2.35;0.80;;;12.50;68.30;;;;;;5000263;28;20033;-92
2021/05/03 22:10:02;;;;;;;2.67;1.23;;;12.50;67.60;;;;;;4998169;28;20030;-91
2021/05/03 22:12:30;;;;;;;4.45;1.83;;;12.40;68.80;;;;;;4994999;28;20054;-89
2021/05/03 22:14:55;;;;;;;3.50;1.67;;;12.40;66.40;;;;;;4991700;28;20019;-90
2021/05/03 22:20:55;;;;;;;2.88;1.13;;;12.40;66.40;;;;;;5011267;28;20216;-89
2021/05/03 22:23:39;;;;;;;3.95;1.00;;;12.40;66.70;;;;;;5002467;28;20034;-91
2021/05/03 22:30:39;;;;;;;1.92;1.10;;;12.40;66.40;;;;;;5000489;28;20028;-90
2021/05/03 22:33:04;;;;;;;4.05;1.33;;;12.40;66.40;;;;;;5012792;28;20038;-89
2021/05/03 22:35:30;;;;;;;1.48;0.93;;;12.30;66.70;;;;;;4998794;28;20113;-93
2021/05/03 22:38:12;;;;;;;3.15;1.23;;;12.30;66.90;;;;;;4994899;28;20041;-89
2021/05/03 22:41:06;;;;;;;3.53;1.08;;;12.30;66.90;;;;;;5008978;28;20044;-92
2021/05/03 22:44:11;;;;;;;2.25;1.10;;;12.30;67.00;;;;;;5002317;28;20018;-89
2021/05/03 23:18:15;;;;;;;2.97;0.90;;;12.30;69.20;;;;;;5003351;28;20269;-92
2021/05/03 23:20:41;;;;;;;2.08;0.90;;;12.30;69.30;;;;;;4996759;28;20266;-89
2021/05/03 23:23:06;;;;;;;6.18;2.17;;;12.30;69.70;;;;;;5004363;28;20129;-88
2021/05/03 23:25:32;;;;;;;2.75;1.15;;;12.40;70.00;;;;;;5008216;28;20033;-88
2021/05/03 23:27:58;;;;;;;3.95;1.10;;;12.40;70.20;;;;;;5002662;28;20031;-89
2021/05/03 23:30:24;;;;;;;2.80;0.85;;;12.40;70.50;;;;;;5017490;28;20526;-89
2021/05/03 23:32:50;;;;;;;7.80;1.52;;;12.30;69.90;;;;;;4997957;28;20525;-88
2021/05/03 23:35:17;;;;;;;4.70;1.27;;;12.30;70.10;;;;;;5014081;28;20029;-88
2021/05/03 23:37:48;;;;;;;7.00;1.48;;;12.30;70.10;;;;;;5037346;28;20065;-93
2021/05/03 23:40:14;;;;;;;3.95;1.65;;;12.30;70.00;;;;;;5006167;28;20084;-88
2021/05/03 23:42:40;;;;;;;7.22;1.38;;;12.30;70.50;;;;;;5002030;28;20026;-88
2021/05/03 23:45:07;;;;;;;3.05;0.90;;;12.30;70.50;;;;;;5004309;28;20105;-93
2021/05/03 23:47:32;;;;;;;2.72;1.20;;;12.30;70.80;;;;;;5037369;28;20022;-92
2021/05/03 23:49:58;;;;;;;3.83;1.38;;;12.30;70.70;;;;;;5012754;28;20482;-92
2021/05/03 23:52:24;;;;;;;7.15;1.60;;;12.30;71.20;;;;;;5002386;28;20023;-91
2021/05/03 23:54:50;;;;;;;3.30;1.30;;;12.30;71.30;;;;;;4999013;28;20032;-92
2021/05/03 23:57:16;;;;;;;3.80;1.33;;;12.30;71.80;;;;;;5001900;28;20130;-92
2021/05/03 23:59:42;;;;;;;6.07;2.30;;;12.30;71.40;;;;;;4996468;28;20029;-88
